Time;durP1;ratioP1;P1;durP2;ratioP2;P2;SDS_P1;SDS_P2;PMS_P1;PMS_P2;Temp;Humidity;BMP_temperature;BMP_pressure;BME280_temperature;BME280_humidity;BME280_pressure;Samples;Min_cycle;Max_cycle;Signal;HPM_P1;HPM_P2
2023/06/28 00:01:39;;;;;;;15.00;7.15;;;11.10;99.90;;;;;;5103155;27;20039;-27
2023/06/28 00:04:05;;;;;;;18.00;7.03;;;11.20;99.90;;;;;;5120787;27;20051;-27
2023/06/28 00:06:31;;;;;;;15.45;7.13;;;11.20;99.90;;;;;;5119956;27;20051;-27
2023/06/28 00:09:00;;;;;;;14.75;7.93;;;11.30;99.90;;;;;;5138003;27;20104;-27
2023/06/28 00:11:27;;;;;;;17.38;7.97;;;11.30;99.90;;;;;;5137909;27;20084;-27
2023/06/28 00:13:53;;;;;;;14.60;8.07;;;11.40;99.90;;;;;;5137923;27;20043;-27
2023/06/28 00:16:19;;;;;;;17.15;8.18;;;11.60;99.90;;;;;;5138744;27;20521;-27
2023/06/28 00:18:45;;;;;;;15.02;8.23;;;11.70;99.90;;;;;;5137807;27;20488;-27
2023/06/28 00:21:14;;;;;;;15.80;8.27;;;11.80;99.90;;;;;;5137778;27;20043;-26
2023/06/28 00:23:41;;;;;;;20.67;8.27;;;11.90;99.90;;;;;;5137730;27;20184;-26
2023/06/28 00:26:07;;;;;;;14.35;7.57;;;11.90;99.90;;;;;;5137665;27;20043;-28
2023/06/28 00:28:32;;;;;;;14.70;7.38;;;11.90;99.90;;;;;;5137517;27;20050;-27
2023/06/28 00:30:58;;;;;;;13.20;7.70;;;11.90;99.90;;;;;;5137577;27;20047;-26
2023/06/28 00:33:24;;;;;;;18.13;7.40;;;11.90;99.90;;;;;;5137146;27;20039;-27
2023/06/28 00:35:49;;;;;;;14.10;7.43;;;11.80;99.90;;;;;;5137476;27;20096;-26
2023/06/28 00:38:15;;;;;;;13.63;7.38;;;11.80;99.90;;;;;;5119331;27;20047;-27
2023/06/28 00:40:41;;;;;;;16.70;7.30;;;11.80;99.90;;;;;;5119264;27;20091;-26
2023/06/28 00:43:07;;;;;;;22.00;7.05;;;11.70;99.90;;;;;;5119040;27;20039;-27
2023/06/28 00:45:33;;;;;;;15.95;7.15;;;11.70;99.90;;;;;;5137889;27;20039;-26
2023/06/28 00:47:59;;;;;;;18.42;7.40;;;11.70;99.90;;;;;;5119136;27;20074;-28
2023/06/28 00:50:26;;;;;;;22.30;7.85;;;11.80;99.90;;;;;;5137158;27;20107;-27
2023/06/28 00:52:52;;;;;;;13.32;7.50;;;12.10;99.90;;;;;;5119606;27;20111;-26
2023/06/28 00:55:17;;;;;;;15.50;7.40;;;12.20;99.90;;;;;;5137421;27;20484;-26
2023/06/28 00:57:44;;;;;;;13.70;7.55;;;12.20;99.90;;;;;;5118648;27;20092;-26
2023/06/28 01:00:12;;;;;;;16.92;7.40;;;12.10;99.90;;;;;;5118739;27;20042;-26
2023/06/28 01:02:44;;;;;;;19.52;7.40;;;12.10;99.90;;;;;;5118999;27;20393;-27
2023/06/28 01:05:13;;;;;;;20.13;7.90;;;12.10;99.90;;;;;;5119690;27;20377;-26
2023/06/28 01:07:40;;;;;;;15.82;7.10;;;12.10;99.90;;;;;;5137179;27;20433;-27
2023/06/28 01:10:08;;;;;;;13.98;6.40;;;12.10;99.90;;;;;;5118995;27;20049;-26
2023/06/28 01:12:35;;;;;;;12.20;6.88;;;12.10;99.90;;;;;;5136783;27;20126;-26
2023/06/28 01:15:00;;;;;;;17.55;7.57;;;12.10;99.90;;;;;;5136751;27;20481;-26
2023/06/28 01:17:26;;;;;;;18.20;8.45;;;12.00;99.90;;;;;;5136690;27;20047;-26
2023/06/28 01:19:54;;;;;;;10.23;6.10;;;12.00;99.90;;;;;;5137334;27;20039;-26
2023/06/28 01:22:21;;;;;;;17.17;7.40;;;12.00;99.90;;;;;;5068921;27;20484;-26
2023/06/28 01:24:47;;;;;;;14.88;7.10;;;12.00;99.90;;;;;;5118693;27;20043;-26
2023/06/28 01:27:13;;;;;;;12.68;6.82;;;12.00;99.90;;;;;;5118833;27;20091;-27
2023/06/28 01:29:40;;;;;;;12.85;6.32;;;12.00;99.90;;;;;;5136839;27;20047;-26
2023/06/28 01:32:07;;;;;;;17.40;7.18;;;12.00;99.90;;;;;;5118287;27;20043;-26
2023/06/28 01:34:32;;;;;;;17.23;6.90;;;12.00;99.90;;;;;;5101222;27;20043;-26
2023/06/28 01:37:01;;;;;;;14.40;6.70;;;12.10;99.90;;;;;;5136317;27;20043;-26
2023/06/28 01:39:29;;;;;;;10.93;6.70;;;12.10;99.90;;;;;;5101053;27;20051;-26
2023/06/28 01:41:56;;;;;;;13.70;7.13;;;12.20;99.90;;;;;;5136826;27;20051;-26
2023/06/28 01:44:22;;;;;;;16.52;7.15;;;12.20;99.90;;;;;;5117803;27;20039;-27
2023/06/28 01:46:51;;;;;;;17.15;7.28;;;12.20;99.90;;;;;;5117614;27;20047;-27
2023/06/28 01:49:17;;;;;;;16.42;8.10;;;12.20;99.90;;;;;;5117922;27;20053;-27
2023/06/28 01:51:43;;;;;;;19.27;8.05;;;12.30;99.90;;;;;;5135629;27;20043;-26
2023/06/28 01:54:08;;;;;;;13.02;7.18;;;12.30;99.90;;;;;;5117748;27;20053;-26
2023/06/28 01:56:34;;;;;;;17.80;8.52;;;12.30;99.90;;;;;;5135830;27;20055;-26
2023/06/28 01:59:00;;;;;;;12.75;7.22;;;12.30;99.90;;;;;;5117591;27;20503;-26
2023/06/28 02:01:26;;;;;;;14.90;7.00;;;12.30;99.90;;;;;;5117779;27;20138;-26
2023/06/28 02:03:51;;;;;;;13.77;7.30;;;12.30;99.90;;;;;;5135773;27;20046;-27
2023/06/28 02:06:18;;;;;;;17.73;9.10;;;12.30;99.90;;;;;;5136027;27;20461;-27
2023/06/28 02:08:44;;;;;;;18.48;8.80;;;12.30;99.90;;;;;;5135647;27;20043;-26
2023/06/28 02:11:09;;;;;;;16.17;8.00;;;12.40;99.90;;;;;;5135530;27;20035;-26
2023/06/28 02:13:35;;;;;;;15.32;8.40;;;12.40;99.90;;;;;;5136132;27;20079;-26
2023/06/28 02:16:02;;;;;;;19.63;8.88;;;12.40;99.90;;;;;;5135540;27;20051;-27
2023/06/28 02:18:28;;;;;;;16.52;7.25;;;12.50;99.90;;;;;;5135506;27;20374;-26
2023/06/28 02:20:54;;;;;;;18.75;7.53;;;12.50;99.90;;;;;;5135680;27;20392;-26
2023/06/28 02:23:20;;;;;;;15.32;8.55;;;12.50;99.90;;;;;;5135453;27;20043;-26
2023/06/28 02:25:46;;;;;;;17.60;8.43;;;12.50;99.90;;;;;;5136191;27;20043;-26
2023/06/28 02:28:12;;;;;;;15.85;7.97;;;12.50;99.90;;;;;;5135641;27;20047;-27
2023/06/28 02:30:38;;;;;;;11.88;7.65;;;12.50;99.90;;;;;;5100267;27;20555;-26
2023/06/28 02:33:04;;;;;;;18.65;7.93;;;12.60;99.90;;;;;;5135797;27;20354;-26
2023/06/28 02:35:30;;;;;;;17.23;8.23;;;12.60;99.90;;;;;;5117107;27;20047;-26
2023/06/28 02:37:56;;;;;;;22.38;9.18;;;12.60;99.90;;;;;;5135134;27;20051;-26
2023/06/28 02:40:24;;;;;;;21.70;9.75;;;12.60;99.90;;;;;;5116935;27;20046;-26
2023/06/28 02:42:49;;;;;;;17.42;7.38;;;12.60;99.90;;;;;;5135070;27;20043;-27
2023/06/28 02:45:15;;;;;;;15.00;8.82;;;12.60;99.90;;;;;;5135022;27;20061;-26
2023/06/28 02:47:41;;;;;;;19.15;8.27;;;12.70;99.90;;;;;;5116682;27;20039;-27
2023/06/28 02:50:07;;;;;;;19.75;7.72;;;12.70;99.90;;;;;;5134905;27;20083;-26
2023/06/28 02:52:33;;;;;;;15.05;7.88;;;12.70;99.90;;;;;;5134649;27;20515;-27
2023/06/28 02:54:58;;;;;;;10.63;7.60;;;12.70;99.90;;;;;;5134833;27;20063;-27
2023/06/28 02:57:24;;;;;;;16.52;8.38;;;12.80;99.90;;;;;;5134327;27;20176;-26
2023/06/28 02:59:50;;;;;;;13.40;7.72;;;12.80;99.90;;;;;;5116590;27;20042;-26
2023/06/28 03:02:16;;;;;;;17.23;8.13;;;12.80;99.90;;;;;;5135587;27;20448;-27
2023/06/28 03:04:42;;;;;;;13.80;8.23;;;12.80;99.90;;;;;;5116350;27;20116;-26
2023/06/28 03:07:14;;;;;;;16.73;8.30;;;12.90;99.90;;;;;;5134728;27;20054;-26
2023/06/28 03:09:41;;;;;;;16.15;8.07;;;12.90;99.90;;;;;;5134706;27;20511;-26
2023/06/28 03:12:07;;;;;;;14.48;7.13;;;12.90;99.90;;;;;;5134727;28;20513;-27
2023/06/28 03:14:34;;;;;;;17.10;7.43;;;13.00;99.90;;;;;;5135423;28;20161;-27
2023/06/28 03:16:59;;;;;;;17.67;7.82;;;13.00;99.90;;;;;;5116913;28;20078;-26
2023/06/28 03:19:25;;;;;;;12.50;7.30;;;13.10;99.90;;;;;;5135445;28;20120;-27
2023/06/28 03:21:51;;;;;;;14.77;7.72;;;13.10;99.90;;;;;;5134580;28;20043;-26
2023/06/28 03:24:16;;;;;;;13.00;7.28;;;13.20;99.90;;;;;;5134564;28;20078;-27
2023/06/28 03:26:42;;;;;;;12.95;7.82;;;13.20;99.90;;;;;;5134624;28;20043;-28
2023/06/28 03:29:08;;;;;;;13.77;6.93;;;13.30;99.90;;;;;;5135017;28;20056;-28
2023/06/28 03:31:33;;;;;;;12.32;7.45;;;13.30;99.90;;;;;;5099758;28;20043;-27
2023/06/28 03:33:59;;;;;;;13.32;6.53;;;13.40;99.90;;;;;;5116456;28;20078;-27
2023/06/28 03:36:27;;;;;;;10.15;5.57;;;13.50;99.90;;;;;;5134563;28;20092;-26
2023/06/28 03:38:53;;;;;;;11.18;6.43;;;13.50;99.90;;;;;;5134494;28;20460;-27
2023/06/28 03:41:19;;;;;;;14.07;6.65;;;13.60;99.90;;;;;;5116956;28;20039;-26
2023/06/28 03:43:45;;;;;;;13.52;6.05;;;13.60;99.90;;;;;;5134431;28;20450;-26
2023/06/28 03:46:11;;;;;;;13.45;6.10;;;13.60;99.90;;;;;;5099292;28;20046;-26
2023/06/28 03:48:37;;;;;;;17.08;6.55;;;13.70;99.90;;;;;;5134361;28;20043;-26
2023/06/28 03:51:02;;;;;;;9.15;5.18;;;13.70;99.90;;;;;;5133994;28;20388;-26
2023/06/28 03:53:28;;;;;;;8.57;4.85;;;13.70;99.90;;;;;;5134306;28;20039;-26
2023/06/28 03:55:54;;;;;;;9.90;6.13;;;13.70;99.90;;;;;;5116375;28;20044;-26
2023/06/28 03:58:20;;;;;;;14.82;5.80;;;13.70;99.90;;;;;;5134256;28;20559;-25
2023/06/28 04:00:45;;;;;;;12.57;5.15;;;13.60;99.90;;;;;;5135111;28;20043;-25
2023/06/28 04:03:11;;;;;;;14.30;6.10;;;13.70;99.90;;;;;;5134231;28;20043;-25
2023/06/28 04:05:37;;;;;;;10.20;6.10;;;13.70;99.90;;;;;;5134160;28;20126;-25
2023/06/28 04:08:02;;;;;;;12.23;6.38;;;13.70;99.90;;;;;;5135172;27;20095;-24
2023/06/28 04:10:28;;;;;;;15.65;6.05;;;13.60;99.90;;;;;;5120044;27;20043;-24
2023/06/28 04:12:54;;;;;;;17.48;7.53;;;13.70;99.90;;;;;;5137964;27;20061;-24
2023/06/28 04:15:20;;;;;;;12.75;6.13;;;13.70;99.90;;;;;;5138454;27;20034;-24
2023/06/28 04:17:46;;;;;;;12.68;6.93;;;13.70;99.90;;;;;;5138722;27;20483;-24
2023/06/28 04:20:12;;;;;;;10.68;5.80;;;13.70;99.90;;;;;;5085580;27;20043;-24
2023/06/28 04:22:37;;;;;;;11.50;5.45;;;13.70;99.90;;;;;;5119674;27;20130;-24
2023/06/28 04:25:04;;;;;;;10.40;5.90;;;13.70;99.90;;;;;;5085731;27;20129;-24
2023/06/28 04:27:29;;;;;;;11.98;5.32;;;13.70;99.90;;;;;;5137667;27;20047;-24
2023/06/28 04:29:55;;;;;;;13.55;5.80;;;13.70;99.90;;;;;;5102782;27;20051;-24
2023/06/28 04:32:23;;;;;;;10.05;5.45;;;13.80;99.90;;;;;;5137658;27;20057;-25
2023/06/28 04:34:52;;;;;;;11.90;5.78;;;13.80;99.90;;;;;;5137586;27;20129;-24
2023/06/28 04:37:22;;;;;;;9.85;5.68;;;13.80;99.90;;;;;;5137505;27;20047;-24
2023/06/28 04:39:49;;;;;;;7.57;5.40;;;13.90;99.90;;;;;;5137460;27;20043;-24
2023/06/28 04:42:14;;;;;;;10.98;5.10;;;13.90;99.90;;;;;;5137392;27;20460;-24
2023/06/28 04:44:47;;;;;;;8.43;4.32;;;14.00;99.90;;;;;;5137874;27;20039;-24
2023/06/28 04:47:16;;;;;;;10.48;5.07;;;14.00;99.90;;;;;;5137655;27;20126;-24
2023/06/28 04:49:49;;;;;;;12.63;4.30;;;14.00;99.90;;;;;;5137764;27;20050;-24
2023/06/28 04:52:18;;;;;;;7.03;3.88;;;14.00;99.90;;;;;;5137790;27;20358;-24
2023/06/28 04:54:45;;;;;;;8.50;3.88;;;14.10;99.90;;;;;;5118737;27;20082;-24
2023/06/28 04:57:12;;;;;;;4.38;3.20;;;14.00;99.90;;;;;;5138430;27;20090;-24
2023/06/28 04:59:39;;;;;;;6.68;3.30;;;14.10;99.90;;;;;;5137674;27;20062;-24
2023/06/28 05:02:05;;;;;;;12.50;4.60;;;14.20;99.90;;;;;;5137127;27;20051;-24
2023/06/28 05:04:35;;;;;;;9.25;3.42;;;14.20;99.90;;;;;;5118628;27;20043;-24
2023/06/28 05:07:05;;;;;;;4.85;3.15;;;14.30;99.90;;;;;;5137238;27;20104;-24
2023/06/28 05:09:35;;;;;;;9.23;3.97;;;14.30;99.90;;;;;;5137568;27;20047;-24
2023/06/28 05:12:02;;;;;;;9.05;4.32;;;14.30;99.90;;;;;;5136843;27;20055;-24
2023/06/28 05:14:29;;;;;;;9.35;3.83;;;14.40;99.90;;;;;;5136782;27;20050;-25
2023/06/28 05:16:55;;;;;;;7.72;3.50;;;14.40;99.90;;;;;;5136419;27;20381;-25
2023/06/28 05:19:22;;;;;;;7.75;3.88;;;14.50;99.90;;;;;;5118765;28;20047;-24
2023/06/28 05:21:48;;;;;;;6.30;3.42;;;14.50;99.90;;;;;;5136343;27;20039;-25
2023/06/28 05:24:16;;;;;;;8.65;4.38;;;14.50;99.90;;;;;;5137188;27;20043;-24
2023/06/28 05:26:42;;;;;;;7.55;4.20;;;14.60;99.90;;;;;;5136857;27;20050;-24
2023/06/28 05:29:08;;;;;;;8.20;3.97;;;14.60;99.90;;;;;;5118358;27;20439;-25
2023/06/28 05:31:37;;;;;;;5.95;3.40;;;14.70;99.90;;;;;;5136401;27;20152;-24
2023/06/28 05:34:03;;;;;;;11.00;4.50;;;14.70;99.90;;;;;;5136407;27;20049;-26
2023/06/28 05:36:29;;;;;;;6.60;4.53;;;14.70;99.90;;;;;;5136386;27;20043;-25
2023/06/28 05:38:56;;;;;;;5.55;4.00;;;14.80;99.90;;;;;;5136300;27;20051;-25
2023/06/28 05:41:22;;;;;;;8.20;3.95;;;14.80;99.90;;;;;;5136271;27;20043;-25
2023/06/28 05:43:48;;;;;;;7.18;4.07;;;14.90;99.90;;;;;;5136250;27;20133;-25
2023/06/28 05:46:13;;;;;;;9.75;5.20;;;14.90;99.90;;;;;;5136528;27;20047;-25
2023/06/28 05:48:39;;;;;;;7.72;4.10;;;15.00;99.90;;;;;;5136626;27;20043;-25
2023/06/28 05:51:09;;;;;;;8.07;4.28;;;15.00;99.90;;;;;;5136243;27;20039;-25
2023/06/28 05:53:37;;;;;;;8.85;4.63;;;15.00;99.90;;;;;;5136087;27;20047;-26
2023/06/28 05:56:03;;;;;;;8.02;4.40;;;15.10;99.90;;;;;;5136266;27;20059;-25
2023/06/28 05:58:29;;;;;;;8.57;4.50;;;15.10;99.90;;;;;;5135982;27;20047;-27
2023/06/28 06:00:55;;;;;;;10.43;4.50;;;15.20;99.90;;;;;;5136469;27;20134;-25
2023/06/28 06:03:20;;;;;;;9.15;4.95;;;15.20;99.90;;;;;;5135781;27;20057;-25
2023/06/28 06:05:46;;;;;;;7.95;4.38;;;15.20;99.90;;;;;;5135763;27;20039;-25
2023/06/28 06:08:12;;;;;;;8.73;5.03;;;15.20;99.90;;;;;;5100531;27;20051;-26
2023/06/28 06:10:38;;;;;;;7.57;4.25;;;15.20;99.90;;;;;;5117455;27;20065;-24
2023/06/28 06:13:04;;;;;;;9.48;4.68;;;15.30;99.90;;;;;;5136157;27;20473;-25
2023/06/28 06:15:30;;;;;;;9.63;4.75;;;15.30;99.90;;;;;;5135585;27;20085;-25
2023/06/28 06:17:56;;;;;;;9.82;4.88;;;15.20;99.90;;;;;;5135558;27;20116;-24
2023/06/28 06:20:22;;;;;;;6.97;4.57;;;15.30;99.90;;;;;;5135519;27;20062;-25
2023/06/28 06:22:49;;;;;;;10.20;5.55;;;15.30;99.90;;;;;;5135474;27;20504;-26
2023/06/28 06:25:15;;;;;;;10.45;5.85;;;15.30;99.90;;;;;;5135994;27;20059;-25
2023/06/28 06:27:41;;;;;;;9.15;5.53;;;15.30;99.90;;;;;;5117257;27;20511;-25
2023/06/28 06:30:07;;;;;;;14.57;5.90;;;15.30;99.90;;;;;;5135322;27;20036;-25
2023/06/28 06:32:33;;;;;;;13.00;5.93;;;15.40;99.90;;;;;;5116805;27;20049;-24
2023/06/28 06:35:00;;;;;;;9.65;5.43;;;15.40;99.90;;;;;;5135219;27;20039;-24
2023/06/28 06:37:27;;;;;;;9.38;5.82;;;15.40;99.90;;;;;;5135200;27;20047;-24
2023/06/28 06:39:55;;;;;;;10.15;5.32;;;15.40;99.90;;;;;;5135121;27;20039;-24
2023/06/28 06:42:21;;;;;;;15.45;5.93;;;15.30;99.90;;;;;;5116971;27;20062;-24
2023/06/28 06:44:46;;;;;;;8.88;5.63;;;15.30;99.90;;;;;;5135095;27;20100;-24
2023/06/28 06:47:12;;;;;;;10.90;6.53;;;15.20;99.90;;;;;;5135032;27;20116;-25
2023/06/28 06:49:38;;;;;;;11.88;6.07;;;15.10;99.90;;;;;;5083066;27;20130;-24
2023/06/28 06:52:04;;;;;;;12.27;5.85;;;15.20;99.90;;;;;;5099588;27;20051;-24
2023/06/28 06:54:30;;;;;;;13.43;6.80;;;15.10;99.90;;;;;;5134894;27;20035;-24
2023/06/28 06:56:59;;;;;;;10.15;6.35;;;15.10;99.90;;;;;;5134636;27;20519;-24
2023/06/28 06:59:26;;;;;;;12.88;6.65;;;15.00;99.90;;;;;;5134816;27;20039;-24
2023/06/28 07:01:52;;;;;;;15.23;7.72;;;15.00;99.90;;;;;;5134779;27;20043;-23
2023/06/28 07:04:21;;;;;;;13.30;7.63;;;15.10;99.90;;;;;;5134838;27;20050;-23
2023/06/28 07:06:48;;;;;;;15.30;7.30;;;15.20;99.90;;;;;;5134777;27;20048;-22
2023/06/28 07:09:14;;;;;;;15.18;7.18;;;15.20;99.90;;;;;;5134789;27;20159;-21
2023/06/28 07:11:41;;;;;;;13.60;8.05;;;15.30;99.90;;;;;;5135445;27;20050;-21
2023/06/28 07:14:07;;;;;;;12.35;7.53;;;15.30;99.90;;;;;;5116874;28;20122;-21
2023/06/28 07:16:33;;;;;;;12.30;7.63;;;15.30;99.90;;;;;;5134327;28;20078;-21
2023/06/28 07:18:58;;;;;;;15.93;7.88;;;15.30;99.90;;;;;;5134657;28;20039;-21
2023/06/28 07:21:24;;;;;;;13.48;7.65;;;15.30;99.90;;;;;;5134599;28;20100;-21
2023/06/28 07:23:50;;;;;;;14.15;7.85;;;15.30;99.90;;;;;;5134571;28;20043;-21
2023/06/28 07:26:15;;;;;;;13.93;7.82;;;15.40;99.90;;;;;;5116261;28;20090;-21
2023/06/28 07:28:41;;;;;;;14.77;7.63;;;15.50;99.90;;;;;;5116155;28;20047;-21
2023/06/28 07:31:07;;;;;;;13.90;7.90;;;15.50;99.90;;;;;;5099889;28;20043;-21
2023/06/28 07:33:34;;;;;;;13.80;8.20;;;15.50;99.90;;;;;;5134489;28;20361;-21
2023/06/28 07:36:00;;;;;;;17.45;7.82;;;15.60;99.90;;;;;;5116408;28;20404;-21
2023/06/28 07:38:26;;;;;;;14.75;8.15;;;15.60;99.90;;;;;;5135274;28;20055;-21
2023/06/28 07:40:53;;;;;;;14.85;7.28;;;15.70;99.90;;;;;;5134501;28;20039;-21
2023/06/28 07:43:19;;;;;;;16.08;8.52;;;15.70;99.90;;;;;;5117539;27;20054;-21
2023/06/28 07:45:45;;;;;;;12.02;7.47;;;15.70;99.90;;;;;;5139344;27;20141;-21
2023/06/28 07:48:11;;;;;;;15.65;8.57;;;15.70;99.90;;;;;;5120156;27;20148;-20
2023/06/28 07:50:37;;;;;;;12.65;7.28;;;15.60;99.90;;;;;;5103467;27;20039;-20
2023/06/28 07:53:03;;;;;;;14.43;7.35;;;15.60;99.90;;;;;;5138435;27;20046;-20
2023/06/28 07:55:29;;;;;;;11.88;7.07;;;15.60;99.90;;;;;;5138597;27;20055;-20
2023/06/28 07:57:58;;;;;;;10.57;7.22;;;15.60;99.90;;;;;;5138045;27;20446;-20
2023/06/28 08:00:27;;;;;;;10.98;7.55;;;15.70;99.90;;;;;;5138244;27;20541;-20
2023/06/28 08:02:52;;;;;;;15.40;8.93;;;15.80;99.90;;;;;;5138152;27;20119;-20
2023/06/28 08:05:19;;;;;;;16.50;8.48;;;15.80;99.90;;;;;;5138970;27;20465;-21
2023/06/28 08:07:46;;;;;;;11.05;8.30;;;15.80;99.90;;;;;;5138059;27;20514;-20
2023/06/28 08:10:11;;;;;;;17.30;9.05;;;15.90;99.90;;;;;;5102606;27;20092;-21
2023/06/28 08:12:37;;;;;;;11.07;6.90;;;16.00;99.90;;;;;;5119980;27;20426;-21
2023/06/28 08:15:03;;;;;;;16.05;7.63;;;15.90;99.90;;;;;;5119719;27;20548;-21
2023/06/28 08:17:29;;;;;;;15.02;8.35;;;15.90;99.90;;;;;;5137928;27;20076;-21
2023/06/28 08:19:54;;;;;;;10.60;7.60;;;16.00;99.90;;;;;;5137781;27;20046;-21
2023/06/28 08:22:20;;;;;;;17.85;8.68;;;16.00;99.90;;;;;;5137772;27;20093;-20
2023/06/28 08:24:47;;;;;;;13.00;7.47;;;16.10;99.90;;;;;;5119636;27;20043;-20
2023/06/28 08:27:13;;;;;;;12.57;7.72;;;16.10;99.90;;;;;;5137768;27;20047;-20
2023/06/28 08:29:38;;;;;;;13.05;7.10;;;16.00;99.90;;;;;;5137643;27;20069;-20
2023/06/28 08:32:04;;;;;;;10.32;6.68;;;16.10;99.90;;;;;;5137530;27;20092;-21
2023/06/28 08:34:30;;;;;;;12.75;7.35;;;16.10;99.90;;;;;;5138137;27;20043;-21
2023/06/28 08:36:56;;;;;;;14.45;7.68;;;16.20;99.90;;;;;;5137847;27;20050;-21
2023/06/28 08:39:22;;;;;;;18.75;8.15;;;16.20;99.90;;;;;;5137170;27;20043;-21
2023/06/28 08:41:48;;;;;;;14.30;7.28;;;16.30;99.90;;;;;;5138079;27;20086;-21
2023/06/28 08:44:15;;;;;;;13.60;8.25;;;16.40;99.90;;;;;;5138261;27;20105;-21
2023/06/28 08:46:44;;;;;;;15.10;8.07;;;16.50;99.90;;;;;;5137983;27;20058;-22
2023/06/28 08:49:10;;;;;;;17.33;8.60;;;16.70;99.90;;;;;;5118765;27;20484;-22
2023/06/28 08:51:37;;;;;;;11.02;7.25;;;16.70;99.90;;;;;;5137195;27;20047;-22
2023/06/28 08:54:04;;;;;;;12.60;7.60;;;16.60;99.90;;;;;;5136572;27;20111;-22
2023/06/28 08:56:30;;;;;;;12.80;7.93;;;16.40;99.90;;;;;;5135993;27;20058;-22
2023/06/28 08:58:56;;;;;;;12.88;8.60;;;16.30;99.90;;;;;;5137411;27;20043;-22
2023/06/28 09:01:22;;;;;;;15.18;9.32;;;16.30;99.90;;;;;;5137044;27;20050;-22
2023/06/28 09:03:49;;;;;;;15.05;9.10;;;16.20;99.90;;;;;;5137044;27;20412;-22
2023/06/28 09:06:15;;;;;;;12.02;9.45;;;16.30;99.90;;;;;;5101953;27;20046;-22
2023/06/28 09:08:43;;;;;;;14.15;8.88;;;16.30;99.90;;;;;;5137237;27;20051;-22
2023/06/28 09:11:10;;;;;;;17.25;9.50;;;16.40;99.90;;;;;;5137118;27;20046;-22
2023/06/28 09:13:37;;;;;;;17.95;10.10;;;16.40;99.90;;;;;;5137496;27;20104;-22
2023/06/28 09:16:05;;;;;;;15.35;9.52;;;16.30;99.90;;;;;;5136819;27;20035;-22
2023/06/28 09:18:31;;;;;;;15.88;10.02;;;16.40;99.90;;;;;;5137960;27;20083;-22
2023/06/28 09:20:56;;;;;;;15.52;10.40;;;16.30;99.90;;;;;;5136721;27;20459;-22
2023/06/28 09:23:26;;;;;;;17.65;10.60;;;16.30;99.90;;;;;;5136897;27;20118;-22
2023/06/28 09:25:53;;;;;;;17.05;10.48;;;16.30;99.90;;;;;;5136619;27;20058;-22
2023/06/28 09:28:21;;;;;;;16.95;11.00;;;16.20;99.90;;;;;;5136536;27;20043;-22
2023/06/28 09:30:56;;;;;;;17.00;11.70;;;16.30;99.90;;;;;;5136369;27;20039;-23
2023/06/28 09:33:26;;;;;;;15.52;11.10;;;16.40;99.90;;;;;;5136481;27;20047;-23
2023/06/28 09:35:56;;;;;;;18.23;11.32;;;16.40;99.90;;;;;;5136423;27;20039;-23
2023/06/28 09:38:22;;;;;;;17.23;10.32;;;16.40;99.90;;;;;;5136915;27;20388;-22
2023/06/28 09:41:01;;;;;;;18.08;11.00;;;16.40;99.90;;;;;;5136351;27;20050;-23
2023/06/28 09:43:32;;;;;;;15.07;9.55;;;16.40;99.90;;;;;;5136926;27;20130;-22
2023/06/28 09:46:13;;;;;;;15.85;10.32;;;16.40;99.90;;;;;;5101666;27;20096;-23
2023/06/28 09:48:43;;;;;;;11.35;8.52;;;16.50;99.90;;;;;;5137050;27;20393;-23
2023/06/28 09:51:11;;;;;;;12.35;9.90;;;16.40;99.90;;;;;;5118054;27;20043;-23
2023/06/28 09:53:52;;;;;;;16.20;10.95;;;16.50;99.90;;;;;;5118248;27;20093;-23
2023/06/28 09:56:18;;;;;;;15.95;11.20;;;16.50;99.90;;;;;;5136542;27;20436;-23
2023/06/28 09:58:47;;;;;;;19.75;11.23;;;16.50;99.90;;;;;;5135981;27;20046;-23
2023/06/28 10:01:16;;;;;;;15.82;11.25;;;16.50;99.90;;;;;;5117577;27;20046;-23
2023/06/28 10:03:44;;;;;;;18.27;11.68;;;16.60;99.90;;;;;;5135882;27;20404;-23
2023/06/28 10:06:10;;;;;;;18.35;12.95;;;16.70;99.90;;;;;;5135398;27;20054;-23
2023/06/28 10:08:38;;;;;;;19.63;12.40;;;16.90;99.90;;;;;;5117606;27;20055;-23
2023/06/28 10:11:12;;;;;;;15.00;11.55;;;17.00;99.90;;;;;;5135637;27;20160;-23
2023/06/28 10:13:41;;;;;;;14.40;10.95;;;17.10;99.90;;;;;;5136268;27;20126;-23
2023/06/28 10:16:13;;;;;;;17.08;10.32;;;17.00;99.90;;;;;;5100503;27;20484;-23
2023/06/28 10:18:40;;;;;;;16.60;11.35;;;17.00;99.90;;;;;;5135890;27;20047;-23
2023/06/28 10:21:07;;;;;;;13.85;10.75;;;17.00;99.90;;;;;;5135518;27;20074;-23
2023/06/28 10:23:35;;;;;;;18.35;12.32;;;17.00;99.90;;;;;;5118128;27;20057;-24
2023/06/28 10:26:05;;;;;;;15.60;11.30;;;17.00;99.90;;;;;;5117392;27;20529;-24
2023/06/28 10:28:35;;;;;;;15.10;11.15;;;17.10;99.90;;;;;;5117850;27;20053;-24
2023/06/28 10:31:05;;;;;;;14.13;10.75;;;17.10;99.90;;;;;;5135251;27;20149;-24
2023/06/28 10:33:31;;;;;;;14.88;10.50;;;17.10;99.90;;;;;;5135297;27;20039;-24
2023/06/28 10:36:00;;;;;;;16.42;10.55;;;17.10;99.90;;;;;;5117491;27;20054;-24
2023/06/28 10:38:31;;;;;;;13.05;9.27;;;17.10;99.90;;;;;;5116800;27;20055;-24
2023/06/28 10:40:57;;;;;;;11.52;9.82;;;17.10;99.90;;;;;;5118314;27;20050;-24
2023/06/28 10:43:24;;;;;;;13.20;10.70;;;17.20;99.90;;;;;;5135140;27;20039;-24
2023/06/28 10:45:52;;;;;;;12.45;9.95;;;17.20;99.90;;;;;;5083528;27;20085;-25
2023/06/28 10:48:22;;;;;;;10.75;9.23;;;17.30;99.90;;;;;;5117022;27;20086;-24
2023/06/28 10:50:50;;;;;;;15.63;9.73;;;17.50;99.90;;;;;;5134935;27;20043;-24
2023/06/28 10:53:25;;;;;;;12.70;10.02;;;17.50;99.90;;;;;;5135469;27;20065;-24
2023/06/28 10:56:13;;;;;;;17.10;11.13;;;17.50;99.90;;;;;;5116831;27;20107;-24
2023/06/28 10:58:47;;;;;;;13.50;9.68;;;17.30;99.90;;;;;;5135735;27;20051;-25
2023/06/28 11:01:37;;;;;;;16.77;11.55;;;17.30;99.90;;;;;;5135164;27;20124;-24
2023/06/28 11:04:16;;;;;;;14.93;11.98;;;17.20;99.90;;;;;;5135499;27;20075;-24
2023/06/28 11:06:42;;;;;;;13.90;10.98;;;17.20;99.90;;;;;;5135682;27;20049;-24
2023/06/28 11:09:13;;;;;;;17.08;12.45;;;17.10;99.90;;;;;;5134737;27;20130;-25
2023/06/28 11:11:41;;;;;;;14.07;10.68;;;17.10;99.90;;;;;;5135573;27;20126;-25
2023/06/28 11:14:26;;;;;;;15.02;11.30;;;17.20;99.90;;;;;;5116632;28;20031;-25
2023/06/28 11:16:59;;;;;;;15.68;11.23;;;17.20;99.90;;;;;;5134540;27;20047;-25
2023/06/28 11:19:26;;;;;;;;;;;17.20;99.90;;;;;;5135156;28;20039;-25
2023/06/28 11:21:57;;;;;;;18.05;11.70;;;17.10;99.90;;;;;;5134722;28;20357;-25
2023/06/28 11:24:44;;;;;;;15.40;11.70;;;17.10;99.90;;;;;;5134887;28;20040;-25
2023/06/28 11:27:16;;;;;;;17.42;12.65;;;17.00;99.90;;;;;;5134913;28;20139;-25
2023/06/28 11:29:52;;;;;;;15.35;12.10;;;17.10;99.90;;;;;;5134504;28;20078;-25
2023/06/28 11:32:26;;;;;;;23.48;12.52;;;17.10;99.90;;;;;;5135347;28;20483;-25
2023/06/28 11:34:54;;;;;;;15.68;12.00;;;17.10;99.90;;;;;;5134587;28;20047;-25
2023/06/28 11:37:22;;;;;;;18.15;12.60;;;17.10;99.90;;;;;;5134475;28;20058;-25
2023/06/28 11:39:49;;;;;;;17.08;13.65;;;17.20;99.90;;;;;;5099164;28;20408;-25
2023/06/28 11:42:14;;;;;;;18.27;13.23;;;17.10;99.90;;;;;;5116348;28;20099;-25
2023/06/28 11:44:50;;;;;;;17.20;12.57;;;17.20;99.90;;;;;;5134692;28;20047;-25
2023/06/28 11:47:18;;;;;;;17.25;12.52;;;17.20;99.90;;;;;;5134387;28;20511;-25
2023/06/28 11:49:45;;;;;;;17.67;13.68;;;17.30;99.90;;;;;;5134027;28;20454;-25
2023/06/28 11:52:11;;;;;;;18.50;14.10;;;17.30;99.90;;;;;;5116754;28;20047;-25
2023/06/28 11:54:38;;;;;;;17.98;13.68;;;17.30;99.90;;;;;;5134601;28;20043;-25
2023/06/28 11:57:04;;;;;;;21.13;15.82;;;17.30;99.90;;;;;;5115590;28;20142;-25
2023/06/28 11:59:30;;;;;;;19.85;16.58;;;17.40;99.90;;;;;;5116493;28;20082;-24
2023/06/28 12:02:08;;;;;;;23.88;15.63;;;17.40;99.90;;;;;;5134213;28;20047;-24
2023/06/28 12:04:37;;;;;;;25.45;17.10;;;17.40;99.90;;;;;;5134206;28;20040;-24
2023/06/28 12:07:04;;;;;;;19.90;14.82;;;17.50;99.90;;;;;;5134243;28;20039;-24
2023/06/28 12:09:37;;;;;;;22.75;17.35;;;17.50;99.90;;;;;;5134785;28;20121;-24
2023/06/28 12:12:07;;;;;;;23.70;16.42;;;17.50;99.90;;;;;;5134103;28;20495;-24
2023/06/28 12:14:40;;;;;;;23.30;16.33;;;17.50;99.90;;;;;;5116907;28;20134;-24
2023/06/28 12:17:06;;;;;;;22.48;15.63;;;17.60;99.90;;;;;;5134119;28;20046;-24
2023/06/28 12:19:35;;;;;;;21.50;16.40;;;17.60;99.90;;;;;;5134063;28;20122;-24
2023/06/28 12:22:05;;;;;;;22.70;16.73;;;17.60;99.90;;;;;;5134075;28;20046;-24
2023/06/28 12:24:34;;;;;;;18.48;15.60;;;17.60;99.90;;;;;;5134040;28;20048;-24
2023/06/28 12:27:02;;;;;;;19.17;16.38;;;17.70;99.90;;;;;;5134071;28;20046;-24
2023/06/28 12:29:30;;;;;;;20.52;15.70;;;17.60;99.90;;;;;;5083678;27;20039;-25
2023/06/28 12:32:07;;;;;;;20.20;17.38;;;17.50;99.90;;;;;;5137588;27;20050;-24
2023/06/28 12:34:34;;;;;;;21.73;16.83;;;17.50;99.90;;;;;;5137651;27;20043;-24
2023/06/28 12:37:08;;;;;;;21.17;17.38;;;17.60;99.90;;;;;;5137605;27;20126;-24